Time,TemperatureF,DewpointF,PressureIn,WindDirection,WindDirectionDegrees,WindSpeedMPH,WindSpeedGustMPH,Humidity,HourlyPrecipIn,Conditions,Clouds,dailyrainin,SoftwareType,DateUTC
2013-02-28 00:00:00,32.8,28.2,30.06,SE,131,1.0,5.0,83,0.00,CLR,,0.28,WeatherDisplay:10.37,2013-02-28 06:00:00,
2013-02-28 00:02:00,34.9,27.5,30.00,WSW,246,0.0,0.0,74,0.03,RA,,0.14,WeatherDisplay:10.37,2013-02-28 06:02:00,
2013-02-28 00:05:00,32.8,27.9,30.06,SSE,154,1.0,3.0,82,0.00,CLR,,0.28,WeatherDisplay:10.37,2013-02-28 06:05:00,
2013-02-28 00:07:00,34.9,27.5,30.00,WSW,246,0.0,0.0,74,0.03,RA,,0.14,WeatherDisplay:10.37,2013-02-28 06:07:00,
2013-02-28 00:10:00,32.7,28.1,30.06,SE,129,0.0,2.0,83,0.00,CLR,,0.28,WeatherDisplay:10.37,2013-02-28 06:10:00,
2013-02-28 00:12:00,34.9,27.5,30.00,WSW,246,0.0,0.0,74,0.03,RA,,0.14,WeatherDisplay:10.37,2013-02-28 06:12:00,
2013-02-28 00:15:00,32.6,28.0,30.06,SE,127,1.0,3.0,83,0.00,CLR,,0.28,WeatherDisplay:10.37,2013-02-28 06:15:00,
2013-02-28 00:17:00,34.9,27.5,30.00,WSW,246,0.0,0.0,74,0.03,RA,,0.14,WeatherDisplay:10.37,2013-02-28 06:17:00,
2013-02-28 00:20:00,32.6,28.0,30.06,SE,138,0.0,2.0,83,0.00,CLR,,0.28,WeatherDisplay:10.37,2013-02-28 06:20:00,
2013-02-28 00:22:00,34.9,27.5,30.00,WSW,246,0.0,0.0,74,0.03,RA,,0.14,WeatherDisplay:10.37,2013-02-28 06:22:00,
2013-02-28 00:25:00,32.5,27.9,30.06,SSE,150,1.0,3.0,83,0.00,CLR,,0.28,WeatherDisplay:10.37,2013-02-28 06:25:00,
2013-02-28 00:27:00,34.9,27.5,30.00,WSW,246,0.0,0.0,74,0.03,RA,,0.14,WeatherDisplay:10.37,2013-02-28 06:27:00,
2013-02-28 00:30:00,32.5,27.9,30.06,SSE,162,0.0,3.0,83,0.00,CLR,,0.28,WeatherDisplay:10.37,2013-02-28 06:30:00,
2013-02-28 00:32:00,34.9,27.5,30.00,WSW,246,0.0,0.0,74,0.03,RA,,0.14,WeatherDisplay:10.37,2013-02-28 06:32:00,
2013-02-28 00:35:00,32.4,27.5,30.06,SSE,148,1.0,4.0,82,0.00,CLR,,0.28,WeatherDisplay:10.37,2013-02-28 06:35:00,
2013-02-28 00:37:00,34.9,27.5,30.00,WSW,246,0.0,0.0,74,0.03,RA,,0.14,WeatherDisplay:10.37,2013-02-28 06:37:00,
2013-02-28 00:40:00,32.4,27.5,30.06,SE,139,0.0,2.0,82,0.00,CLR,,0.28,WeatherDisplay:10.37,2013-02-28 06:40:00,
2013-02-28 00:42:00,34.9,27.5,30.00,WSW,246,0.0,0.0,74,0.03,RA,,0.14,WeatherDisplay:10.37,2013-02-28 06:42:00,
2013-02-28 00:45:00,32.3,27.7,30.06,SE,142,1.0,4.0,83,0.00,CLR,,0.28,WeatherDisplay:10.37,2013-02-28 06:45:00,
2013-02-28 00:47:00,34.9,27.5,30.00,WSW,246,0.0,0.0,74,0.03,RA,,0.14,WeatherDisplay:10.37,2013-02-28 06:47:00,
2013-02-28 00:50:00,32.3,27.4,30.06,SE,146,2.0,4.0,82,0.00,CLR,,0.28,WeatherDisplay:10.37,2013-02-28 06:50:00,
2013-02-28 00:52:00,34.9,27.5,30.00,WSW,246,0.0,0.0,74,0.03,RA,,0.14,WeatherDisplay:10.37,2013-02-28 06:52:00,
2013-02-28 00:55:00,32.2,27.0,30.06,SE,134,0.0,4.0,81,0.00,CLR,,0.28,WeatherDisplay:10.37,2013-02-28 06:55:00,
2013-02-28 00:57:00,34.9,27.5,30.00,WSW,246,0.0,0.0,74,0.03,RA,,0.14,WeatherDisplay:10.37,2013-02-28 06:57:00,
2013-02-28 01:00:00,32.2,27.3,30.06,SE,129,0.0,2.0,82,0.00,CLR,,0.28,WeatherDisplay:10.37,2013-02-28 07:00:00,
2013-02-28 01:02:00,34.9,27.5,30.00,WSW,246,0.0,0.0,74,0.03,RA,,0.14,WeatherDisplay:10.37,2013-02-28 07:02:00,
2013-02-28 01:05:00,32.1,27.2,30.06,SE,129,1.0,4.0,82,0.00,CLR,,0.28,WeatherDisplay:10.37,2013-02-28 07:05:00,
2013-02-28 01:07:00,34.9,27.5,30.00,WSW,246,0.0,0.0,74,0.03,RA,,0.14,WeatherDisplay:10.37,2013-02-28 07:07:00,
2013-02-28 01:10:00,32.0,27.1,30.06,SE,134,1.0,4.0,82,0.00,CLR,,0.28,WeatherDisplay:10.37,2013-02-28 07:10:00,
2013-02-28 01:12:00,34.9,27.5,30.00,WSW,246,0.0,0.0,74,0.03,RA,,0.14,WeatherDisplay:10.37,2013-02-28 07:12:00,
2013-02-28 01:15:00,32.0,27.1,30.06,ESE,104,0.0,2.0,82,0.00,CLR,,0.28,WeatherDisplay:10.37,2013-02-28 07:15:00,
2013-02-28 01:18:00,34.9,27.5,30.00,WSW,246,0.0,0.0,74,0.03,RA,,0.14,WeatherDisplay:10.37,2013-02-28 07:18:00,
2013-02-28 01:20:00,31.9,27.0,30.06,East,94,1.0,3.0,82,0.00,CLR,,0.28,WeatherDisplay:10.37,2013-02-28 07:20:00,
2013-02-28 01:23:00,34.9,27.5,30.00,WSW,246,0.0,0.0,74,0.03,RA,,0.14,WeatherDisplay:10.37,2013-02-28 07:23:00,
2013-02-28 01:25:00,31.8,26.9,30.06,South,177,0.0,3.0,82,0.00,CLR,,0.28,WeatherDisplay:10.37,2013-02-28 07:25:00,
2013-02-28 01:28:00,34.9,27.5,30.00,WSW,246,0.0,0.0,74,0.03,RA,,0.14,WeatherDisplay:10.37,2013-02-28 07:28:00,
2013-02-28 01:30:00,31.8,26.9,30.06,South,183,1.0,5.0,82,0.00,CLR,,0.28,WeatherDisplay:10.37,2013-02-28 07:30:00,
2013-02-28 01:33:00,34.9,27.5,30.00,WSW,246,0.0,0.0,74,0.03,RA,,0.14,WeatherDisplay:10.37,2013-02-28 07:33:00,
2013-02-28 01:35:00,31.7,26.8,30.07,SSE,153,0.0,3.0,82,0.00,CLR,,0.28,WeatherDisplay:10.37,2013-02-28 07:35:00,
2013-02-28 01:38:00,34.9,27.5,30.00,WSW,246,0.0,0.0,74,0.03,RA,,0.14,WeatherDisplay:10.37,2013-02-28 07:38:00,
2013-02-28 01:40:00,31.7,26.8,30.07,SSE,158,1.0,3.0,82,0.00,CLR,,0.28,WeatherDisplay:10.37,2013-02-28 07:40:00,
2013-02-28 01:43:00,34.9,27.5,30.00,WSW,246,0.0,0.0,74,0.03,RA,,0.14,WeatherDisplay:10.37,2013-02-28 07:43:00,
2013-02-28 01:45:00,31.7,26.8,30.06,SSE,164,1.0,4.0,82,0.00,CLR,,0.28,WeatherDisplay:10.37,2013-02-28 07:45:00,
2013-02-28 01:48:00,34.9,27.5,30.00,WSW,246,0.0,0.0,74,0.03,RA,,0.14,WeatherDisplay:10.37,2013-02-28 07:48:00,
2013-02-28 01:50:00,31.6,26.7,30.06,WSW,239,1.0,4.0,82,0.00,CLR,,0.28,WeatherDisplay:10.37,2013-02-28 07:50:00,
2013-02-28 01:53:00,34.9,27.5,30.00,WSW,246,0.0,0.0,74,0.03,RA,,0.14,WeatherDisplay:10.37,2013-02-28 07:53:00,
2013-02-28 01:55:00,31.6,26.7,30.07,ENE,77,0.0,4.0,82,0.00,CLR,,0.28,WeatherDisplay:10.37,2013-02-28 07:55:00,
2013-02-28 01:58:00,34.9,27.5,30.00,WSW,246,0.0,0.0,74,0.03,RA,,0.14,WeatherDisplay:10.37,2013-02-28 07:58:00,
2013-02-28 02:00:00,31.6,26.7,30.07,ESE,123,0.0,3.0,82,0.00,CLR,,0.28,WeatherDisplay:10.37,2013-02-28 08:00:00,
2013-02-28 02:03:00,34.9,27.5,30.00,WSW,246,0.0,0.0,74,0.03,RA,,0.14,WeatherDisplay:10.37,2013-02-28 08:03:00,
2013-02-28 02:05:00,31.5,26.6,30.07,SSE,161,0.0,5.0,82,0.00,CLR,,0.28,WeatherDisplay:10.37,2013-02-28 08:05:00,
2013-02-28 02:08:00,34.9,27.5,30.00,WSW,246,0.0,0.0,74,0.03,RA,,0.14,WeatherDisplay:10.37,2013-02-28 08:08:00,
2013-02-28 02:10:00,31.4,26.5,30.07,SSE,162,0.0,4.0,82,0.00,CLR,,0.28,WeatherDisplay:10.37,2013-02-28 08:10:00,
2013-02-28 02:13:00,34.9,27.5,30.00,WSW,246,0.0,0.0,74,0.03,RA,,0.14,WeatherDisplay:10.37,2013-02-28 08:13:00,
2013-02-28 02:15:00,31.4,26.5,30.07,ESE,120,0.0,2.0,82,0.00,CLR,,0.28,WeatherDisplay:10.37,2013-02-28 08:15:00,
2013-02-28 02:18:00,34.9,27.5,30.00,WSW,246,0.0,0.0,74,0.03,RA,,0.14,WeatherDisplay:10.37,2013-02-28 08:18:00,
2013-02-28 02:20:00,31.4,26.5,30.07,ESE,109,1.0,4.0,82,0.00,CLR,,0.28,WeatherDisplay:10.37,2013-02-28 08:20:00,
2013-02-28 02:23:00,34.9,27.5,30.00,WSW,246,0.0,0.0,74,0.03,RA,,0.14,WeatherDisplay:10.37,2013-02-28 08:23:00,
2013-02-28 02:25:00,31.3,26.4,30.08,SE,127,0.0,4.0,82,0.00,CLR,,0.28,WeatherDisplay:10.37,2013-02-28 08:25:00,
2013-02-28 02:29:00,34.9,27.5,30.00,WSW,246,0.0,0.0,74,0.03,RA,,0.14,WeatherDisplay:10.37,2013-02-28 08:29:00,
2013-02-28 02:30:00,31.2,26.3,30.08,SSE,151,0.0,3.0,82,0.00,CLR,,0.28,WeatherDisplay:10.37,2013-02-28 08:30:00,
2013-02-28 02:34:00,34.9,27.5,30.00,WSW,246,0.0,0.0,74,0.03,RA,,0.14,WeatherDisplay:10.37,2013-02-28 08:34:00,
2013-02-28 02:35:00,31.2,26.3,30.08,SE,145,1.0,4.0,82,0.00,CLR,,0.28,WeatherDisplay:10.37,2013-02-28 08:35:00,
2013-02-28 02:39:00,34.9,27.5,30.00,WSW,246,0.0,0.0,74,0.03,RA,,0.14,WeatherDisplay:10.37,2013-02-28 08:39:00,
2013-02-28 02:40:00,31.1,26.2,30.08,SE,146,0.0,3.0,82,0.00,CLR,,0.28,WeatherDisplay:10.37,2013-02-28 08:40:00,
2013-02-28 02:44:00,34.9,27.5,30.00,WSW,246,0.0,0.0,74,0.03,RA,,0.14,WeatherDisplay:10.37,2013-02-28 08:44:00,
2013-02-28 02:45:00,31.0,26.1,30.08,SSE,158,1.0,3.0,82,0.00,CLR,,0.28,WeatherDisplay:10.37,2013-02-28 08:45:00,
2013-02-28 02:49:00,34.9,27.5,30.00,WSW,246,0.0,0.0,74,0.03,RA,,0.14,WeatherDisplay:10.37,2013-02-28 08:49:00,
2013-02-28 02:50:00,31.0,26.1,30.08,SE,139,1.0,5.0,82,0.00,CLR,,0.28,WeatherDisplay:10.37,2013-02-28 08:50:00,
2013-02-28 02:54:00,34.9,27.5,30.00,WSW,246,0.0,0.0,74,0.03,RA,,0.14,WeatherDisplay:10.37,2013-02-28 08:54:00,
2013-02-28 02:55:00,31.0,25.9,30.07,SE,130,1.0,2.0,81,0.00,CLR,,0.28,WeatherDisplay:10.37,2013-02-28 08:55:00,
2013-02-28 02:59:00,34.9,27.5,30.00,WSW,246,0.0,0.0,74,0.03,RA,,0.14,WeatherDisplay:10.37,2013-02-28 08:59:00,
2013-02-28 03:00:00,30.9,26.1,30.08,SE,141,3.0,6.0,82,0.00,CLR,,0.28,WeatherDisplay:10.37,2013-02-28 09:00:00,
2013-02-28 03:05:00,34.9,27.5,30.00,WSW,246,0.0,0.0,74,0.03,RA,,0.14,WeatherDisplay:10.37,2013-02-28 09:05:00,
2013-02-28 03:10:00,34.9,27.5,30.00,WSW,246,0.0,0.0,74,0.03,RA,,0.14,WeatherDisplay:10.37,2013-02-28 09:10:00,
2013-02-28 03:15:00,34.9,27.5,30.00,WSW,246,0.0,0.0,74,0.03,RA,,0.14,WeatherDisplay:10.37,2013-02-28 09:15:00,
2013-02-28 03:20:00,34.9,27.5,30.00,WSW,246,0.0,0.0,74,0.03,RA,,0.14,WeatherDisplay:10.37,2013-02-28 09:20:00,
2013-02-28 03:25:00,34.9,27.5,30.00,WSW,246,0.0,0.0,74,0.03,RA,,0.14,WeatherDisplay:10.37,2013-02-28 09:25:00,
2013-02-28 03:30:00,34.9,27.5,30.00,WSW,246,0.0,0.0,74,0.03,RA,,0.14,WeatherDisplay:10.37,2013-02-28 09:30:00,
2013-02-28 03:35:00,34.9,27.5,30.00,WSW,246,0.0,0.0,74,0.03,RA,,0.14,WeatherDisplay:10.37,2013-02-28 09:35:00,
2013-02-28 03:40:00,34.9,27.5,30.00,WSW,246,0.0,0.0,74,0.03,RA,,0.14,WeatherDisplay:10.37,2013-02-28 09:40:00,
2013-02-28 03:45:00,34.9,27.5,30.00,WSW,246,0.0,0.0,74,0.03,RA,,0.14,WeatherDisplay:10.37,2013-02-28 09:45:00,
2013-02-28 03:50:00,34.9,27.5,30.00,WSW,246,0.0,0.0,74,0.03,RA,,0.14,WeatherDisplay:10.37,2013-02-28 09:50:00,
2013-02-28 03:55:00,34.9,27.5,30.00,WSW,246,0.0,0.0,74,0.03,RA,,0.14,WeatherDisplay:10.37,2013-02-28 09:55:00,
2013-02-28 04:00:00,34.9,27.5,30.00,WSW,246,0.0,0.0,74,0.03,RA,,0.14,WeatherDisplay:10.37,2013-02-28 10:00:00,
2013-02-28 04:05:00,34.9,27.5,30.00,WSW,246,0.0,0.0,74,0.03,RA,,0.14,WeatherDisplay:10.37,2013-02-28 10:05:00,
2013-02-28 04:10:00,34.9,27.5,30.00,WSW,246,0.0,0.0,74,0.03,RA,,0.14,WeatherDisplay:10.37,2013-02-28 10:10:00,
2013-02-28 04:15:00,34.9,27.5,30.00,WSW,246,0.0,0.0,74,0.03,RA,,0.14,WeatherDisplay:10.37,2013-02-28 10:15:00,
2013-02-28 04:20:00,34.9,27.5,30.00,WSW,246,0.0,0.0,74,0.03,RA,,0.14,WeatherDisplay:10.37,2013-02-28 10:20:00,
2013-02-28 04:25:00,34.9,27.5,30.00,WSW,246,0.0,0.0,74,0.03,RA,,0.14,WeatherDisplay:10.37,2013-02-28 10:25:00,
2013-02-28 04:30:00,34.9,27.5,30.00,WSW,246,0.0,0.0,74,0.03,RA,,0.14,WeatherDisplay:10.37,2013-02-28 10:30:00,
2013-02-28 04:35:00,34.9,27.5,30.00,WSW,246,0.0,0.0,74,0.03,RA,,0.14,WeatherDisplay:10.37,2013-02-28 10:35:00,
2013-02-28 04:40:00,34.9,27.5,30.00,WSW,246,0.0,0.0,74,0.03,RA,,0.14,WeatherDisplay:10.37,2013-02-28 10:40:00,
2013-02-28 04:45:00,34.9,27.5,30.00,WSW,246,0.0,0.0,74,0.03,RA,,0.14,WeatherDisplay:10.37,2013-02-28 10:45:00,
2013-02-28 04:50:00,34.9,27.5,30.00,WSW,246,0.0,0.0,74,0.03,RA,,0.14,WeatherDisplay:10.37,2013-02-28 10:50:00,
2013-02-28 04:55:00,34.9,27.5,30.00,WSW,246,0.0,0.0,74,0.03,RA,,0.14,WeatherDisplay:10.37,2013-02-28 10:55:00,
2013-02-28 05:00:00,29.4,24.6,30.11,SE,136,1.0,4.0,82,0.00,CLR,,0.28,WeatherDisplay:10.37,2013-02-28 11:00:00,
2013-02-28 05:02:00,34.9,27.5,30.00,WSW,246,0.0,0.0,74,0.03,RA,,0.14,WeatherDisplay:10.37,2013-02-28 11:02:00,
2013-02-28 05:05:00,29.3,24.5,30.12,SSE,147,1.0,7.0,82,0.00,CLR,,0.28,WeatherDisplay:10.37,2013-02-28 11:05:00,
2013-02-28 05:07:00,34.9,27.5,30.00,WSW,246,0.0,0.0,74,0.03,RA,,0.14,WeatherDisplay:10.37,2013-02-28 11:07:00,
2013-02-28 05:10:00,29.2,24.7,30.12,ESE,105,0.0,4.0,83,0.00,CLR,,0.28,WeatherDisplay:10.37,2013-02-28 11:10:00,
2013-02-28 05:12:00,34.9,27.5,30.00,WSW,246,0.0,0.0,74,0.03,RA,,0.14,WeatherDisplay:10.37,2013-02-28 11:12:00,
2013-02-28 05:15:00,29.2,24.7,30.12,ESE,108,1.0,4.0,83,0.00,CLR,,0.28,WeatherDisplay:10.37,2013-02-28 11:15:00,
2013-02-28 05:17:00,34.9,27.5,30.00,WSW,246,0.0,0.0,74,0.03,RA,,0.14,WeatherDisplay:10.37,2013-02-28 11:17:00,
2013-02-28 05:20:00,29.2,24.7,30.12,SE,130,0.0,5.0,83,0.00,CLR,,0.28,WeatherDisplay:10.37,2013-02-28 11:20:00,
2013-02-28 05:22:00,34.9,27.5,30.00,WSW,246,0.0,0.0,74,0.03,RA,,0.14,WeatherDisplay:10.37,2013-02-28 11:22:00,
2013-02-28 05:25:00,29.2,24.7,30.13,East,93,1.0,3.0,83,0.00,CLR,,0.28,WeatherDisplay:10.37,2013-02-28 11:25:00,
2013-02-28 05:27:00,34.9,27.5,30.00,WSW,246,0.0,0.0,74,0.03,RA,,0.14,WeatherDisplay:10.37,2013-02-28 11:27:00,
2013-02-28 05:30:00,29.2,24.7,30.13,ESE,106,0.0,2.0,83,0.00,CLR,,0.28,WeatherDisplay:10.37,2013-02-28 11:30:00,
2013-02-28 05:32:00,34.9,27.5,30.00,WSW,246,0.0,0.0,74,0.03,RA,,0.14,WeatherDisplay:10.37,2013-02-28 11:32:00,
2013-02-28 05:35:00,29.1,24.9,30.13,SSE,156,0.0,0.0,84,0.00,CLR,,0.28,WeatherDisplay:10.37,2013-02-28 11:35:00,
2013-02-28 05:37:00,34.9,27.5,30.00,WSW,246,0.0,0.0,74,0.03,RA,,0.14,WeatherDisplay:10.37,2013-02-28 11:37:00,
2013-02-28 05:40:00,29.1,24.9,30.13,South,180,0.0,3.0,84,0.00,CLR,,0.28,WeatherDisplay:10.37,2013-02-28 11:40:00,
2013-02-28 05:43:00,34.9,27.5,30.00,WSW,246,0.0,0.0,74,0.03,RA,,0.14,WeatherDisplay:10.37,2013-02-28 11:43:00,
2013-02-28 05:45:00,29.1,24.9,30.13,South,180,0.0,1.0,84,0.00,CLR,,0.28,WeatherDisplay:10.37,2013-02-28 11:45:00,
2013-02-28 05:48:00,34.9,27.5,30.00,WSW,246,0.0,0.0,74,0.03,RA,,0.14,WeatherDisplay:10.37,2013-02-28 11:48:00,
2013-02-28 05:50:00,29.0,24.8,30.14,South,176,1.0,3.0,84,0.00,CLR,,0.28,WeatherDisplay:10.37,2013-02-28 11:50:00,
2013-02-28 05:54:00,34.9,27.5,30.00,WSW,246,0.0,0.0,74,0.03,RA,,0.14,WeatherDisplay:10.37,2013-02-28 11:54:00,
2013-02-28 05:55:00,29.0,24.8,30.14,SE,143,1.0,3.0,84,0.00,CLR,,0.28,WeatherDisplay:10.37,2013-02-28 11:55:00,
2013-02-28 05:59:00,34.9,27.5,30.00,WSW,246,0.0,0.0,74,0.03,RA,,0.14,WeatherDisplay:10.37,2013-02-28 11:59:00,
2013-02-28 06:00:00,28.8,24.3,30.14,East,79,0.0,5.0,83,0.00,CLR,,0.28,WeatherDisplay:10.37,2013-02-28 12:00:00,
2013-02-28 06:04:00,34.9,27.5,30.00,WSW,246,0.0,0.0,74,0.03,RA,,0.14,WeatherDisplay:10.37,2013-02-28 12:04:00,
2013-02-28 06:05:00,28.6,24.1,30.15,East,80,1.0,4.0,83,0.00,CLR,,0.28,WeatherDisplay:10.37,2013-02-28 12:05:00,
2013-02-28 06:10:00,28.6,24.1,30.15,ESE,116,0.0,2.0,83,0.00,CLR,,0.28,WeatherDisplay:10.37,2013-02-28 12:10:00,
2013-02-28 06:11:00,34.9,27.5,30.00,WSW,246,0.0,0.0,74,0.03,RA,,0.14,WeatherDisplay:10.37,2013-02-28 12:11:00,
2013-02-28 06:15:00,28.5,24.0,30.15,ESE,117,1.0,3.0,83,0.00,CLR,,0.28,WeatherDisplay:10.37,2013-02-28 12:15:00,
2013-02-28 06:16:00,34.9,27.5,30.00,WSW,246,0.0,0.0,74,0.03,RA,,0.14,WeatherDisplay:10.37,2013-02-28 12:16:00,
2013-02-28 06:20:00,28.5,24.3,30.15,ENE,59,0.0,2.0,84,0.00,CLR,,0.28,WeatherDisplay:10.37,2013-02-28 12:20:00,
2013-02-28 06:21:00,34.9,27.5,30.00,WSW,246,0.0,0.0,74,0.03,RA,,0.14,WeatherDisplay:10.37,2013-02-28 12:21:00,
2013-02-28 06:25:00,28.5,24.0,30.15,North,354,1.0,5.0,83,0.00,CLR,,0.28,WeatherDisplay:10.37,2013-02-28 12:25:00,
2013-02-28 06:26:00,34.9,27.5,30.00,WSW,246,0.0,0.0,74,0.03,RA,,0.14,WeatherDisplay:10.37,2013-02-28 12:26:00,
2013-02-28 06:30:00,28.5,24.3,30.15,North,356,1.0,6.0,84,0.00,CLR,,0.28,WeatherDisplay:10.37,2013-02-28 12:30:00,
2013-02-28 06:31:00,34.9,27.5,30.00,WSW,246,0.0,0.0,74,0.03,RA,,0.14,WeatherDisplay:10.37,2013-02-28 12:31:00,
2013-02-28 06:35:00,28.4,24.2,30.16,ENE,68,1.0,3.0,84,0.00,CLR,,0.28,WeatherDisplay:10.37,2013-02-28 12:35:00,
2013-02-28 06:36:00,34.9,27.5,30.00,WSW,246,0.0,0.0,74,0.03,RA,,0.14,WeatherDisplay:10.37,2013-02-28 12:36:00,
2013-02-28 06:40:00,28.4,24.2,30.15,SE,128,0.0,3.0,84,0.00,CLR,,0.28,WeatherDisplay:10.37,2013-02-28 12:40:00,
2013-02-28 06:41:00,34.9,27.5,30.00,WSW,246,0.0,0.0,74,0.03,RA,,0.14,WeatherDisplay:10.37,2013-02-28 12:41:00,
2013-02-28 06:45:00,28.6,24.7,30.15,SE,142,0.0,4.0,85,0.00,CLR,,0.28,WeatherDisplay:10.37,2013-02-28 12:45:00,
2013-02-28 06:46:00,34.9,27.5,30.00,WSW,246,0.0,0.0,74,0.03,RA,,0.14,WeatherDisplay:10.37,2013-02-28 12:46:00,
2013-02-28 06:50:00,28.6,24.4,30.16,SE,139,0.0,3.0,84,0.00,CLR,,0.28,WeatherDisplay:10.37,2013-02-28 12:50:00,
2013-02-28 06:51:00,34.9,27.5,30.00,WSW,246,0.0,0.0,74,0.03,RA,,0.14,WeatherDisplay:10.37,2013-02-28 12:51:00,
2013-02-28 06:55:00,28.6,24.4,30.16,SE,135,0.0,2.0,84,0.00,CLR,,0.28,WeatherDisplay:10.37,2013-02-28 12:55:00,
2013-02-28 06:56:00,34.9,27.5,30.00,WSW,246,0.0,0.0,74,0.03,RA,,0.14,WeatherDisplay:10.37,2013-02-28 12:56:00,
2013-02-28 07:00:00,28.6,24.4,30.16,SE,135,0.0,0.0,84,0.00,CLR,,0.28,WeatherDisplay:10.37,2013-02-28 13:00:00,
2013-02-28 07:02:00,34.9,27.5,30.00,WSW,246,0.0,0.0,74,0.03,RA,,0.14,WeatherDisplay:10.37,2013-02-28 13:02:00,
2013-02-28 07:05:00,28.6,24.4,30.16,SE,135,0.0,1.0,84,0.00,CLR,,0.28,WeatherDisplay:10.37,2013-02-28 13:05:00,
2013-02-28 07:07:00,34.9,27.5,30.00,WSW,246,0.0,0.0,74,0.03,RA,,0.14,WeatherDisplay:10.37,2013-02-28 13:07:00,
2013-02-28 07:10:00,28.7,24.5,30.16,SE,135,0.0,1.0,84,0.00,CLR,,0.28,WeatherDisplay:10.37,2013-02-28 13:10:00,
2013-02-28 07:12:00,34.9,27.5,30.00,WSW,246,0.0,0.0,74,0.03,RA,,0.14,WeatherDisplay:10.37,2013-02-28 13:12:00,
2013-02-28 07:15:00,28.7,24.5,30.16,SE,135,0.0,2.0,84,0.00,CLR,,0.28,WeatherDisplay:10.37,2013-02-28 13:15:00,
2013-02-28 07:17:00,34.9,27.5,30.00,WSW,246,0.0,0.0,74,0.03,RA,,0.14,WeatherDisplay:10.37,2013-02-28 13:17:00,
2013-02-28 07:20:00,28.8,24.6,30.16,SE,127,1.0,4.0,84,0.00,CLR,,0.28,WeatherDisplay:10.37,2013-02-28 13:20:00,
2013-02-28 07:22:00,34.9,27.5,30.00,WSW,246,0.0,0.0,74,0.03,RA,,0.14,WeatherDisplay:10.37,2013-02-28 13:22:00,
2013-02-28 07:25:00,28.8,24.6,30.16,ESE,103,0.0,1.0,84,0.00,CLR,,0.28,WeatherDisplay:10.37,2013-02-28 13:25:00,
2013-02-28 07:27:00,34.9,27.5,30.00,WSW,246,0.0,0.0,74,0.03,RA,,0.14,WeatherDisplay:10.37,2013-02-28 13:27:00,
2013-02-28 07:30:00,28.9,25.0,30.17,East,90,0.0,1.0,85,0.00,CLR,,0.28,WeatherDisplay:10.37,2013-02-28 13:30:00,
2013-02-28 07:32:00,34.9,27.5,30.00,WSW,246,0.0,0.0,74,0.03,RA,,0.14,WeatherDisplay:10.37,2013-02-28 13:32:00,
2013-02-28 07:35:00,29.0,24.8,30.16,East,90,0.0,2.0,84,0.00,CLR,,0.28,WeatherDisplay:10.37,2013-02-28 13:35:00,
2013-02-28 07:37:00,34.9,27.5,30.00,WSW,246,0.0,0.0,74,0.03,RA,,0.14,WeatherDisplay:10.37,2013-02-28 13:37:00,
2013-02-28 07:40:00,29.0,24.8,30.17,East,90,0.0,2.0,84,0.00,CLR,,0.28,WeatherDisplay:10.37,2013-02-28 13:40:00,
2013-02-28 07:42:00,34.9,27.5,30.00,WSW,246,0.0,0.0,74,0.03,RA,,0.14,WeatherDisplay:10.37,2013-02-28 13:42:00,
2013-02-28 07:45:00,29.0,24.8,30.17,East,90,0.0,1.0,84,0.00,CLR,,0.28,WeatherDisplay:10.37,2013-02-28 13:45:00,
2013-02-28 07:47:00,34.9,27.5,30.00,WSW,246,0.0,0.0,74,0.03,RA,,0.14,WeatherDisplay:10.37,2013-02-28 13:47:00,
2013-02-28 07:50:00,29.1,24.9,30.17,ENE,74,0.0,4.0,84,0.00,CLR,,0.28,WeatherDisplay:10.37,2013-02-28 13:50:00,
2013-02-28 07:52:00,34.9,27.5,30.00,WSW,246,0.0,0.0,74,0.03,RA,,0.14,WeatherDisplay:10.37,2013-02-28 13:52:00,
2013-02-28 07:55:00,29.1,24.6,30.17,NE,41,0.0,4.0,83,0.00,CLR,,0.28,WeatherDisplay:10.37,2013-02-28 13:55:00,
2013-02-28 07:58:00,34.9,27.5,30.00,WSW,246,0.0,0.0,74,0.03,RA,,0.14,WeatherDisplay:10.37,2013-02-28 13:58:00,
2013-02-28 08:00:00,29.2,24.4,30.17,East,88,1.0,5.0,82,0.00,CLR,,0.28,WeatherDisplay:10.37,2013-02-28 14:00:00,
2013-02-28 08:03:00,34.9,27.5,30.00,WSW,246,0.0,0.0,74,0.03,RA,,0.14,WeatherDisplay:10.37,2013-02-28 14:03:00,
2013-02-28 08:05:00,29.3,24.5,30.17,East,88,1.0,3.0,82,0.00,CLR,,0.28,WeatherDisplay:10.37,2013-02-28 14:05:00,
2013-02-28 08:08:00,34.9,27.5,30.00,WSW,246,0.0,0.0,74,0.03,RA,,0.14,WeatherDisplay:10.37,2013-02-28 14:08:00,
2013-02-28 08:10:00,29.4,24.6,30.17,ENE,74,1.0,5.0,82,0.00,CLR,,0.28,WeatherDisplay:10.37,2013-02-28 14:10:00,
2013-02-28 08:13:00,34.9,27.5,30.00,WSW,246,0.0,0.0,74,0.03,RA,,0.14,WeatherDisplay:10.37,2013-02-28 14:13:00,
2013-02-28 08:15:00,29.5,24.7,30.17,WSW,247,0.0,3.0,82,0.00,CLR,,0.28,WeatherDisplay:10.37,2013-02-28 14:15:00,
2013-02-28 08:18:00,34.9,27.5,30.00,WSW,246,0.0,0.0,74,0.03,RA,,0.14,WeatherDisplay:10.37,2013-02-28 14:18:00,
2013-02-28 08:20:00,29.5,24.7,30.17,WSW,256,1.0,6.0,82,0.00,CLR,,0.28,WeatherDisplay:10.37,2013-02-28 14:20:00,
2013-02-28 08:23:00,34.9,27.5,30.00,WSW,246,0.0,0.0,74,0.03,RA,,0.14,WeatherDisplay:10.37,2013-02-28 14:23:00,
2013-02-28 08:25:00,29.5,24.7,30.17,SE,139,1.0,4.0,82,0.00,CLR,,0.28,WeatherDisplay:10.37,2013-02-28 14:25:00,
2013-02-28 08:28:00,34.9,27.5,30.00,WSW,246,0.0,0.0,74,0.03,RA,,0.14,WeatherDisplay:10.37,2013-02-28 14:28:00,
2013-02-28 08:30:00,29.4,24.3,30.17,SE,142,2.0,5.0,81,0.00,CLR,,0.28,WeatherDisplay:10.37,2013-02-28 14:30:00,
2013-02-28 08:34:00,34.9,27.5,30.00,WSW,246,0.0,0.0,74,0.03,RA,,0.14,WeatherDisplay:10.37,2013-02-28 14:34:00,
2013-02-28 08:35:00,29.5,24.7,30.18,SE,129,0.0,4.0,82,0.00,CLR,,0.28,WeatherDisplay:10.37,2013-02-28 14:35:00,
2013-02-28 08:39:00,34.9,27.5,30.00,WSW,246,0.0,0.0,74,0.03,RA,,0.14,WeatherDisplay:10.37,2013-02-28 14:39:00,
2013-02-28 08:40:00,29.7,24.9,30.18,ESE,116,0.0,2.0,82,0.00,CLR,,0.28,WeatherDisplay:10.37,2013-02-28 14:40:00,
2013-02-28 08:44:00,34.9,27.5,30.00,WSW,246,0.0,0.0,74,0.03,RA,,0.14,WeatherDisplay:10.37,2013-02-28 14:44:00,
2013-02-28 08:45:00,29.8,25.0,30.18,ESE,122,1.0,3.0,82,0.00,CLR,,0.28,WeatherDisplay:10.37,2013-02-28 14:45:00,
2013-02-28 08:49:00,34.9,27.5,30.00,WSW,246,0.0,0.0,74,0.03,RA,,0.14,WeatherDisplay:10.37,2013-02-28 14:49:00,
2013-02-28 08:50:00,29.8,25.0,30.18,SSE,152,0.0,2.0,82,0.00,CLR,,0.28,WeatherDisplay:10.37,2013-02-28 14:50:00,
2013-02-28 08:54:00,34.9,27.5,30.00,WSW,246,0.0,0.0,74,0.03,RA,,0.14,WeatherDisplay:10.37,2013-02-28 14:54:00,
2013-02-28 08:55:00,29.9,25.1,30.18,SSE,162,0.0,1.0,82,0.00,CLR,,0.28,WeatherDisplay:10.37,2013-02-28 14:55:00,
2013-02-28 08:59:00,34.9,27.5,30.00,WSW,246,0.0,0.0,74,0.03,RA,,0.14,WeatherDisplay:10.37,2013-02-28 14:59:00,
2013-02-28 09:00:00,30.1,25.0,30.18,SSE,154,1.0,3.0,81,0.00,CLR,,0.28,WeatherDisplay:10.37,2013-02-28 15:00:00,
2013-02-28 09:04:00,34.9,27.5,30.00,WSW,246,0.0,0.0,74,0.03,RA,,0.14,WeatherDisplay:10.37,2013-02-28 15:04:00,
2013-02-28 09:05:00,30.1,25.0,30.18,SE,129,0.0,2.0,81,0.00,CLR,,0.28,WeatherDisplay:10.37,2013-02-28 15:05:00,
2013-02-28 09:09:00,34.9,27.5,30.00,WSW,246,0.0,0.0,74,0.03,RA,,0.14,WeatherDisplay:10.37,2013-02-28 15:09:00,
2013-02-28 09:10:00,30.2,25.1,30.18,SE,131,1.0,3.0,81,0.00,CLR,,0.28,WeatherDisplay:10.37,2013-02-28 15:10:00,
2013-02-28 09:14:00,34.9,27.5,30.00,WSW,246,0.0,0.0,74,0.03,RA,,0.14,WeatherDisplay:10.37,2013-02-28 15:14:00,
2013-02-28 09:15:00,30.3,25.2,30.19,SE,133,1.0,3.0,81,0.00,CLR,,0.28,WeatherDisplay:10.37,2013-02-28 15:15:00,
2013-02-28 09:19:00,34.9,27.5,30.00,WSW,246,0.0,0.0,74,0.03,RA,,0.14,WeatherDisplay:10.37,2013-02-28 15:19:00,
2013-02-28 09:20:00,30.4,25.3,30.19,ESE,122,1.0,3.0,81,0.00,CLR,,0.28,WeatherDisplay:10.37,2013-02-28 15:20:00,
2013-02-28 09:24:00,34.9,27.5,30.00,WSW,246,0.0,0.0,74,0.03,RA,,0.14,WeatherDisplay:10.37,2013-02-28 15:24:00,
2013-02-28 09:25:00,30.5,25.4,30.19,SE,133,0.0,2.0,81,0.00,CLR,,0.28,WeatherDisplay:10.37,2013-02-28 15:25:00,
2013-02-28 09:29:00,34.9,27.5,30.00,WSW,246,0.0,0.0,74,0.03,RA,,0.14,WeatherDisplay:10.37,2013-02-28 15:29:00,
2013-02-28 09:30:00,30.5,25.1,30.18,SE,140,1.0,4.0,80,0.00,CLR,,0.28,WeatherDisplay:10.37,2013-02-28 15:30:00,
2013-02-28 09:34:00,34.9,27.5,30.00,WSW,246,0.0,0.0,74,0.03,RA,,0.14,WeatherDisplay:10.37,2013-02-28 15:34:00,
2013-02-28 09:35:00,30.5,25.4,30.19,SE,134,1.0,3.0,81,0.00,CLR,,0.28,WeatherDisplay:10.37,2013-02-28 15:35:00,
2013-02-28 09:39:00,34.9,27.5,30.00,WSW,246,0.0,0.0,74,0.03,RA,,0.14,WeatherDisplay:10.37,2013-02-28 15:39:00,
2013-02-28 09:40:00,30.7,25.6,30.18,ESE,116,0.0,2.0,81,0.00,CLR,,0.28,WeatherDisplay:10.37,2013-02-28 15:40:00,
2013-02-28 09:44:00,34.9,27.5,30.00,WSW,246,0.0,0.0,74,0.03,RA,,0.14,WeatherDisplay:10.37,2013-02-28 15:44:00,
2013-02-28 09:45:00,30.8,25.4,30.18,East,94,0.0,5.0,80,0.00,CLR,,0.28,WeatherDisplay:10.37,2013-02-28 15:45:00,
2013-02-28 09:49:00,34.9,27.5,30.00,WSW,246,0.0,0.0,74,0.03,RA,,0.14,WeatherDisplay:10.37,2013-02-28 15:49:00,
2013-02-28 09:50:00,30.8,25.4,30.18,NE,37,0.0,5.0,80,0.00,CLR,,0.28,WeatherDisplay:10.37,2013-02-28 15:50:00,
2013-02-28 09:55:00,34.9,27.5,30.00,WSW,246,0.0,0.0,74,0.03,RA,,0.14,WeatherDisplay:10.37,2013-02-28 15:55:00,
2013-02-28 10:00:00,34.9,27.5,30.00,WSW,246,0.0,0.0,74,0.03,RA,,0.14,WeatherDisplay:10.37,2013-02-28 16:00:00,
2013-02-28 10:05:00,34.9,27.5,30.00,WSW,246,0.0,0.0,74,0.03,RA,,0.14,WeatherDisplay:10.37,2013-02-28 16:05:00,
2013-02-28 10:10:00,31.1,25.7,30.19,SE,134,1.0,4.0,80,0.00,CLR,,0.28,WeatherDisplay:10.37,2013-02-28 16:10:00,
2013-02-28 10:12:00,34.9,27.5,30.00,WSW,246,0.0,0.0,74,0.03,RA,,0.14,WeatherDisplay:10.37,2013-02-28 16:12:00,
2013-02-28 10:15:00,31.2,25.7,30.19,ESE,117,0.0,1.0,80,0.00,CLR,,0.28,WeatherDisplay:10.37,2013-02-28 16:15:00,
2013-02-28 10:17:00,34.9,27.5,30.00,WSW,246,0.0,0.0,74,0.03,RA,,0.14,WeatherDisplay:10.37,2013-02-28 16:17:00,
2013-02-28 10:20:00,31.2,25.4,30.19,SSE,150,1.0,3.0,79,0.00,CLR,,0.28,WeatherDisplay:10.37,2013-02-28 16:20:00,
2013-02-28 10:23:00,34.9,27.5,30.00,WSW,246,0.0,0.0,74,0.03,RA,,0.14,WeatherDisplay:10.37,2013-02-28 16:23:00,
2013-02-28 10:25:00,31.2,25.7,30.19,SSE,159,1.0,4.0,80,0.00,CLR,,0.28,WeatherDisplay:10.37,2013-02-28 16:25:00,
2013-02-28 10:28:00,34.9,27.5,30.00,WSW,246,0.0,0.0,74,0.03,RA,,0.14,WeatherDisplay:10.37,2013-02-28 16:28:00,
2013-02-28 10:30:00,31.3,25.8,30.20,ESE,107,0.0,3.0,80,0.00,CLR,,0.28,WeatherDisplay:10.37,2013-02-28 16:30:00,
2013-02-28 10:33:00,34.9,27.5,30.00,WSW,246,0.0,0.0,74,0.03,RA,,0.14,WeatherDisplay:10.37,2013-02-28 16:33:00,
2013-02-28 10:35:00,31.4,25.6,30.20,ESE,103,1.0,2.0,79,0.00,CLR,,0.28,WeatherDisplay:10.37,2013-02-28 16:35:00,
2013-02-28 10:38:00,34.9,27.5,30.00,WSW,246,0.0,0.0,74,0.03,RA,,0.14,WeatherDisplay:10.37,2013-02-28 16:38:00,
2013-02-28 10:40:00,31.4,25.6,30.20,SE,135,0.0,3.0,79,0.00,CLR,,0.28,WeatherDisplay:10.37,2013-02-28 16:40:00,
2013-02-28 10:43:00,34.9,27.5,30.00,WSW,246,0.0,0.0,74,0.03,RA,,0.14,WeatherDisplay:10.37,2013-02-28 16:43:00,
2013-02-28 10:45:00,31.4,25.6,30.20,SE,137,0.0,4.0,79,0.00,CLR,,0.28,WeatherDisplay:10.37,2013-02-28 16:45:00,
2013-02-28 10:48:00,34.9,27.5,30.00,WSW,246,0.0,0.0,74,0.03,RA,,0.14,WeatherDisplay:10.37,2013-02-28 16:48:00,
2013-02-28 10:50:00,31.4,25.6,30.20,SE,146,0.0,2.0,79,0.00,CLR,,0.28,WeatherDisplay:10.37,2013-02-28 16:50:00,
2013-02-28 10:53:00,34.9,27.5,30.00,WSW,246,0.0,0.0,74,0.03,RA,,0.14,WeatherDisplay:10.37,2013-02-28 16:53:00,
2013-02-28 10:55:00,31.4,25.6,30.20,SE,132,1.0,3.0,79,0.00,CLR,,0.28,WeatherDisplay:10.37,2013-02-28 16:55:00,
2013-02-28 10:58:00,34.9,27.5,30.00,WSW,246,0.0,0.0,74,0.03,RA,,0.14,WeatherDisplay:10.37,2013-02-28 16:58:00,
2013-02-28 11:00:00,31.4,25.6,30.20,SSE,153,0.0,2.0,79,0.00,CLR,,0.28,WeatherDisplay:10.37,2013-02-28 17:00:00,
2013-02-28 11:03:00,34.9,27.5,30.00,WSW,246,0.0,0.0,74,0.03,RA,,0.14,WeatherDisplay:10.37,2013-02-28 17:03:00,
2013-02-28 11:05:00,31.4,25.6,30.20,South,188,2.0,4.0,79,0.00,RA,,0.00,WeatherDisplay:10.37,2013-02-28 17:05:00,
2013-02-28 11:08:00,34.9,27.5,30.00,WSW,246,0.0,0.0,74,0.03,RA,,0.14,WeatherDisplay:10.37,2013-02-28 17:08:00,
2013-02-28 11:10:00,31.5,25.7,30.20,SE,136,0.0,3.0,79,0.00,RA,,0.00,WeatherDisplay:10.37,2013-02-28 17:10:00,
2013-02-28 11:13:00,34.9,27.5,30.00,WSW,246,0.0,0.0,74,0.03,RA,,0.14,WeatherDisplay:10.37,2013-02-28 17:13:00,
2013-02-28 11:15:00,31.6,25.8,30.19,SE,135,0.0,2.0,79,0.00,CLR,,0.00,WeatherDisplay:10.37,2013-02-28 17:15:00,
2013-02-28 11:18:00,34.9,27.5,30.00,WSW,246,0.0,0.0,74,0.03,RA,,0.14,WeatherDisplay:10.37,2013-02-28 17:18:00,
2013-02-28 11:20:00,34.9,27.5,30.00,WSW,246,0.0,0.0,74,0.03,RA,,0.14,WeatherDisplay:10.37,2013-02-28 17:20:00,
2013-02-28 11:25:00,34.9,27.5,30.00,WSW,246,0.0,0.0,74,0.03,RA,,0.14,WeatherDisplay:10.37,2013-02-28 17:25:00,
2013-02-28 11:30:00,34.9,27.5,30.00,WSW,246,0.0,0.0,74,0.03,RA,,0.14,WeatherDisplay:10.37,2013-02-28 17:30:00,
2013-02-28 11:35:00,31.9,26.1,30.19,SE,135,1.0,2.0,79,0.00,CLR,,0.00,WeatherDisplay:10.37,2013-02-28 17:35:00,
2013-02-28 11:36:00,34.9,27.5,30.00,WSW,246,0.0,0.0,74,0.03,RA,,0.14,WeatherDisplay:10.37,2013-02-28 17:36:00,
2013-02-28 11:40:00,31.9,26.1,30.19,ESE,117,0.0,2.0,79,0.00,CLR,,0.00,WeatherDisplay:10.37,2013-02-28 17:40:00,
2013-02-28 11:41:00,34.9,27.5,30.00,WSW,246,0.0,0.0,74,0.03,RA,,0.14,WeatherDisplay:10.37,2013-02-28 17:41:00,
2013-02-28 11:45:00,31.9,26.1,30.19,East,94,0.0,2.0,79,0.00,CLR,,0.00,WeatherDisplay:10.37,2013-02-28 17:45:00,
2013-02-28 11:46:00,34.9,27.5,30.00,WSW,246,0.0,0.0,74,0.03,RA,,0.14,WeatherDisplay:10.37,2013-02-28 17:46:00,
2013-02-28 11:50:00,31.9,26.1,30.19,East,90,0.0,1.0,79,0.00,CLR,,0.00,WeatherDisplay:10.37,2013-02-28 17:50:00,
2013-02-28 11:51:00,34.9,27.5,30.00,WSW,246,0.0,0.0,74,0.03,RA,,0.14,WeatherDisplay:10.37,2013-02-28 17:51:00,
2013-02-28 11:55:00,32.0,26.5,30.19,East,90,0.0,1.0,80,0.00,CLR,,0.00,WeatherDisplay:10.37,2013-02-28 17:55:00,
2013-02-28 11:56:00,34.9,27.5,30.00,WSW,246,0.0,0.0,74,0.03,RA,,0.14,WeatherDisplay:10.37,2013-02-28 17:56:00,
2013-02-28 12:00:00,32.0,26.5,30.19,East,90,0.0,1.0,80,0.00,CLR,,0.00,WeatherDisplay:10.37,2013-02-28 18:00:00,
2013-02-28 12:01:00,34.9,27.5,30.00,WSW,246,0.0,0.0,74,0.03,RA,,0.14,WeatherDisplay:10.37,2013-02-28 18:01:00,
2013-02-28 12:05:00,31.9,26.1,30.19,ESE,103,0.0,3.0,79,0.00,CLR,,0.00,WeatherDisplay:10.37,2013-02-28 18:05:00,
2013-02-28 12:06:00,34.9,27.5,30.00,WSW,246,0.0,0.0,74,0.03,RA,,0.14,WeatherDisplay:10.37,2013-02-28 18:06:00,
2013-02-28 12:10:00,31.9,26.1,30.19,SE,126,0.0,2.0,79,0.00,CLR,,0.00,WeatherDisplay:10.37,2013-02-28 18:10:00,
2013-02-28 12:11:00,34.9,27.5,30.00,WSW,246,0.0,0.0,74,0.03,RA,,0.14,WeatherDisplay:10.37,2013-02-28 18:11:00,
2013-02-28 12:15:00,31.7,25.9,30.19,SE,139,1.0,2.0,79,0.00,CLR,,0.00,WeatherDisplay:10.37,2013-02-28 18:15:00,
2013-02-28 12:16:00,34.9,27.5,30.00,WSW,246,0.0,0.0,74,0.03,RA,,0.14,WeatherDisplay:10.37,2013-02-28 18:16:00,
2013-02-28 12:20:00,31.7,25.9,30.19,SSE,162,0.0,2.0,79,0.00,CLR,,0.00,WeatherDisplay:10.37,2013-02-28 18:20:00,
2013-02-28 12:21:00,34.9,27.5,30.00,WSW,246,0.0,0.0,74,0.03,RA,,0.14,WeatherDisplay:10.37,2013-02-28 18:21:00,
2013-02-28 12:25:00,31.7,26.2,30.19,South,180,0.0,2.0,80,0.00,CLR,,0.00,WeatherDisplay:10.37,2013-02-28 18:25:00,
2013-02-28 12:27:00,34.9,27.5,30.00,WSW,246,0.0,0.0,74,0.03,RA,,0.14,WeatherDisplay:10.37,2013-02-28 18:27:00,
2013-02-28 12:30:00,31.8,26.3,30.19,South,180,0.0,1.0,80,0.00,CLR,,0.00,WeatherDisplay:10.37,2013-02-28 18:30:00,
2013-02-28 12:32:00,34.9,27.5,30.00,WSW,246,0.0,0.0,74,0.03,RA,,0.14,WeatherDisplay:10.37,2013-02-28 18:32:00,
2013-02-28 12:35:00,31.8,26.0,30.19,South,178,1.0,2.0,79,0.01,RA,,0.01,WeatherDisplay:10.37,2013-02-28 18:35:00,
2013-02-28 12:37:00,34.9,27.5,30.00,WSW,246,0.0,0.0,74,0.03,RA,,0.14,WeatherDisplay:10.37,2013-02-28 18:37:00,
2013-02-28 12:40:00,31.8,26.3,30.19,SSE,167,0.0,3.0,80,0.01,RA,,0.01,WeatherDisplay:10.37,2013-02-28 18:40:00,
2013-02-28 12:42:00,34.9,27.5,30.00,WSW,246,0.0,0.0,74,0.03,RA,,0.14,WeatherDisplay:10.37,2013-02-28 18:42:00,
2013-02-28 12:45:00,31.8,26.3,30.19,SSE,158,0.0,2.0,80,0.00,CLR,,0.01,WeatherDisplay:10.37,2013-02-28 18:45:00,
2013-02-28 12:47:00,34.9,27.5,30.00,WSW,246,0.0,0.0,74,0.03,RA,,0.14,WeatherDisplay:10.37,2013-02-28 18:47:00,
2013-02-28 12:50:00,31.9,26.4,30.19,SSE,158,0.0,3.0,80,0.00,CLR,,0.01,WeatherDisplay:10.37,2013-02-28 18:50:00,
2013-02-28 12:53:00,34.9,27.5,30.00,WSW,246,0.0,0.0,74,0.03,RA,,0.14,WeatherDisplay:10.37,2013-02-28 18:53:00,
2013-02-28 12:55:00,31.9,26.4,30.19,SSE,158,0.0,2.0,80,0.00,CLR,,0.01,WeatherDisplay:10.37,2013-02-28 18:55:00,
2013-02-28 12:58:00,34.9,27.5,30.00,WSW,246,0.0,0.0,74,0.03,RA,,0.14,WeatherDisplay:10.37,2013-02-28 18:58:00,
2013-02-28 13:00:00,32.0,26.5,30.19,East,99,0.0,3.0,80,0.00,CLR,,0.01,WeatherDisplay:10.37,2013-02-28 19:00:00,
2013-02-28 13:03:00,34.9,27.5,30.00,WSW,246,0.0,0.0,74,0.03,RA,,0.14,WeatherDisplay:10.37,2013-02-28 19:03:00,
2013-02-28 13:05:00,32.0,26.5,30.19,NNE,33,1.0,3.0,80,0.00,CLR,,0.01,WeatherDisplay:10.37,2013-02-28 19:05:00,
2013-02-28 13:08:00,34.9,27.5,30.00,WSW,246,0.0,0.0,74,0.03,RA,,0.14,WeatherDisplay:10.37,2013-02-28 19:08:00,
2013-02-28 13:10:00,31.8,26.3,30.19,ESE,106,0.0,2.0,80,0.00,CLR,,0.01,WeatherDisplay:10.37,2013-02-28 19:10:00,
2013-02-28 13:13:00,34.9,27.5,30.00,WSW,246,0.0,0.0,74,0.03,RA,,0.14,WeatherDisplay:10.37,2013-02-28 19:13:00,
2013-02-28 13:15:00,31.9,26.4,30.19,SSE,156,0.0,3.0,80,0.00,CLR,,0.01,WeatherDisplay:10.37,2013-02-28 19:15:00,
2013-02-28 13:18:00,34.9,27.5,30.00,WSW,246,0.0,0.0,74,0.03,RA,,0.14,WeatherDisplay:10.37,2013-02-28 19:18:00,
2013-02-28 13:20:00,31.9,26.4,30.19,SSE,158,0.0,2.0,80,0.00,CLR,,0.01,WeatherDisplay:10.37,2013-02-28 19:20:00,
2013-02-28 13:24:00,34.9,27.5,30.00,WSW,246,0.0,0.0,74,0.03,RA,,0.14,WeatherDisplay:10.37,2013-02-28 19:24:00,
2013-02-28 13:25:00,31.8,26.3,30.19,South,170,0.0,2.0,80,0.00,CLR,,0.01,WeatherDisplay:10.37,2013-02-28 19:25:00,
2013-02-28 13:29:00,34.9,27.5,30.00,WSW,246,0.0,0.0,74,0.03,RA,,0.14,WeatherDisplay:10.37,2013-02-28 19:29:00,
2013-02-28 13:30:00,31.8,26.3,30.19,SSW,194,0.0,2.0,80,0.00,CLR,,0.01,WeatherDisplay:10.37,2013-02-28 19:30:00,
2013-02-28 13:34:00,34.9,27.5,30.00,WSW,246,0.0,0.0,74,0.03,RA,,0.14,WeatherDisplay:10.37,2013-02-28 19:34:00,
2013-02-28 13:35:00,31.8,26.3,30.19,SSW,202,0.0,1.0,80,0.00,CLR,,0.01,WeatherDisplay:10.37,2013-02-28 19:35:00,
2013-02-28 13:39:00,34.9,27.5,30.00,WSW,246,0.0,0.0,74,0.03,RA,,0.14,WeatherDisplay:10.37,2013-02-28 19:39:00,
2013-02-28 13:40:00,31.7,26.2,30.19,South,189,0.0,4.0,80,0.00,CLR,,0.01,WeatherDisplay:10.37,2013-02-28 19:40:00,
2013-02-28 13:44:00,34.9,27.5,30.00,WSW,246,0.0,0.0,74,0.03,RA,,0.14,WeatherDisplay:10.37,2013-02-28 19:44:00,
2013-02-28 13:45:00,31.8,26.6,30.19,ENE,65,0.0,2.0,81,0.00,CLR,,0.01,WeatherDisplay:10.37,2013-02-28 19:45:00,
2013-02-28 13:49:00,34.9,27.5,30.00,WSW,246,0.0,0.0,74,0.03,RA,,0.14,WeatherDisplay:10.37,2013-02-28 19:49:00,
2013-02-28 13:50:00,31.7,26.5,30.19,NE,45,0.0,2.0,81,0.00,CLR,,0.01,WeatherDisplay:10.37,2013-02-28 19:50:00,
2013-02-28 13:54:00,34.9,27.5,30.00,WSW,246,0.0,0.0,74,0.03,RA,,0.14,WeatherDisplay:10.37,2013-02-28 19:54:00,
2013-02-28 13:55:00,31.6,26.4,30.19,NE,45,0.0,2.0,81,0.00,CLR,,0.01,WeatherDisplay:10.37,2013-02-28 19:55:00,
2013-02-28 14:00:00,34.9,27.5,30.00,WSW,246,0.0,0.0,74,0.03,RA,,0.14,WeatherDisplay:10.37,2013-02-28 20:00:00,
2013-02-28 14:05:00,34.9,27.5,30.00,WSW,246,0.0,0.0,74,0.03,RA,,0.14,WeatherDisplay:10.37,2013-02-28 20:05:00,
2013-02-28 14:10:00,34.9,27.5,30.00,WSW,246,0.0,0.0,74,0.03,RA,,0.14,WeatherDisplay:10.37,2013-02-28 20:10:00,
2013-02-28 14:15:00,34.9,27.5,30.00,WSW,246,0.0,0.0,74,0.03,RA,,0.14,WeatherDisplay:10.37,2013-02-28 20:15:00,
2013-02-28 14:20:00,34.9,27.5,30.00,WSW,246,0.0,0.0,74,0.03,RA,,0.14,WeatherDisplay:10.37,2013-02-28 20:20:00,
2013-02-28 14:25:00,34.9,27.5,30.00,WSW,246,0.0,0.0,74,0.03,RA,,0.14,WeatherDisplay:10.37,2013-02-28 20:25:00,
2013-02-28 14:30:00,34.9,27.5,30.00,WSW,246,0.0,0.0,74,0.03,RA,,0.14,WeatherDisplay:10.37,2013-02-28 20:30:00,
2013-02-28 14:35:00,34.9,27.5,30.00,WSW,246,0.0,0.0,74,0.03,RA,,0.14,WeatherDisplay:10.37,2013-02-28 20:35:00,
2013-02-28 14:40:00,34.9,27.5,30.00,WSW,246,0.0,0.0,74,0.03,RA,,0.14,WeatherDisplay:10.37,2013-02-28 20:40:00,
2013-02-28 14:45:00,34.9,27.5,30.00,WSW,246,0.0,0.0,74,0.03,RA,,0.14,WeatherDisplay:10.37,2013-02-28 20:45:00,
2013-02-28 14:50:00,34.9,27.5,30.00,WSW,246,0.0,0.0,74,0.03,RA,,0.14,WeatherDisplay:10.37,2013-02-28 20:50:00,
2013-02-28 14:55:00,34.9,27.5,30.00,WSW,246,0.0,0.0,74,0.03,RA,,0.14,WeatherDisplay:10.37,2013-02-28 20:55:00,
2013-02-28 15:00:00,34.9,27.5,30.00,WSW,246,0.0,0.0,74,0.03,RA,,0.14,WeatherDisplay:10.37,2013-02-28 21:00:00,
2013-02-28 15:05:00,34.9,27.5,30.00,WSW,246,0.0,0.0,74,0.03,RA,,0.14,WeatherDisplay:10.37,2013-02-28 21:05:00,
2013-02-28 15:10:00,34.9,27.5,30.00,WSW,246,0.0,0.0,74,0.03,RA,,0.14,WeatherDisplay:10.37,2013-02-28 21:10:00,
2013-02-28 15:15:00,34.9,27.5,30.00,WSW,246,0.0,0.0,74,0.03,RA,,0.14,WeatherDisplay:10.37,2013-02-28 21:15:00,
2013-02-28 15:20:00,34.9,27.5,30.00,WSW,246,0.0,0.0,74,0.03,RA,,0.14,WeatherDisplay:10.37,2013-02-28 21:20:00,
2013-02-28 15:25:00,34.9,27.5,30.00,WSW,246,0.0,0.0,74,0.03,RA,,0.14,WeatherDisplay:10.37,2013-02-28 21:25:00,
2013-02-28 15:30:00,34.9,27.5,30.00,WSW,246,0.0,0.0,74,0.03,RA,,0.14,WeatherDisplay:10.37,2013-02-28 21:30:00,
2013-02-28 15:35:00,34.9,27.5,30.00,WSW,246,0.0,0.0,74,0.03,RA,,0.14,WeatherDisplay:10.37,2013-02-28 21:35:00,
2013-02-28 15:40:00,34.9,27.5,30.00,WSW,246,0.0,0.0,74,0.03,RA,,0.14,WeatherDisplay:10.37,2013-02-28 21:40:00,
2013-02-28 15:45:00,34.9,27.5,30.00,WSW,246,0.0,0.0,74,0.03,RA,,0.14,WeatherDisplay:10.37,2013-02-28 21:45:00,
2013-02-28 15:50:00,31.6,26.4,30.19,West,274,0.0,2.0,81,0.00,CLR,,0.02,WeatherDisplay:10.37,2013-02-28 21:50:00,
2013-02-28 15:51:00,34.9,27.5,30.00,WSW,246,0.0,0.0,74,0.03,RA,,0.14,WeatherDisplay:10.37,2013-02-28 21:51:00,
2013-02-28 15:55:00,31.5,26.0,30.19,SW,230,0.0,6.0,80,0.00,CLR,,0.02,WeatherDisplay:10.37,2013-02-28 21:55:00,
2013-02-28 15:56:00,34.9,27.5,30.00,WSW,246,0.0,0.0,74,0.03,RA,,0.14,WeatherDisplay:10.37,2013-02-28 21:56:00,
2013-02-28 16:00:00,31.4,26.2,30.19,West,259,0.0,4.0,81,0.00,CLR,,0.02,WeatherDisplay:10.37,2013-02-28 22:00:00,
2013-02-28 16:01:00,34.9,27.5,30.00,WSW,246,0.0,0.0,74,0.03,RA,,0.14,WeatherDisplay:10.37,2013-02-28 22:01:00,
2013-02-28 16:05:00,31.5,26.3,30.19,West,259,0.0,2.0,81,0.00,CLR,,0.02,WeatherDisplay:10.37,2013-02-28 22:05:00,
2013-02-28 16:06:00,34.9,27.5,30.00,WSW,246,0.0,0.0,74,0.03,RA,,0.14,WeatherDisplay:10.37,2013-02-28 22:06:00,
2013-02-28 16:10:00,31.5,26.3,30.19,WSW,248,0.0,1.0,81,0.00,CLR,,0.02,WeatherDisplay:10.37,2013-02-28 22:10:00,
2013-02-28 16:11:00,34.9,27.5,30.00,WSW,246,0.0,0.0,74,0.03,RA,,0.14,WeatherDisplay:10.37,2013-02-28 22:11:00,
2013-02-28 16:15:00,31.5,26.3,30.19,WSW,238,1.0,4.0,81,0.00,CLR,,0.02,WeatherDisplay:10.37,2013-02-28 22:15:00,
2013-02-28 16:16:00,34.9,27.5,30.00,WSW,246,0.0,0.0,74,0.03,RA,,0.14,WeatherDisplay:10.37,2013-02-28 22:16:00,
2013-02-28 16:20:00,31.4,25.9,30.19,WSW,239,1.0,6.0,80,0.00,CLR,,0.02,WeatherDisplay:10.37,2013-02-28 22:20:00,
2013-02-28 16:21:00,34.9,27.5,30.00,WSW,246,0.0,0.0,74,0.03,RA,,0.14,WeatherDisplay:10.37,2013-02-28 22:21:00,
2013-02-28 16:25:00,31.3,26.1,30.19,West,270,0.0,3.0,81,0.00,CLR,,0.02,WeatherDisplay:10.37,2013-02-28 22:25:00,
2013-02-28 16:26:00,34.9,27.5,30.00,WSW,246,0.0,0.0,74,0.03,RA,,0.14,WeatherDisplay:10.37,2013-02-28 22:26:00,
2013-02-28 16:30:00,31.2,26.0,30.19,WSW,256,0.0,4.0,81,0.00,CLR,,0.02,WeatherDisplay:10.37,2013-02-28 22:30:00,
2013-02-28 16:31:00,34.9,27.5,30.00,WSW,246,0.0,0.0,74,0.03,RA,,0.14,WeatherDisplay:10.37,2013-02-28 22:31:00,
2013-02-28 16:35:00,31.2,26.0,30.20,WSW,245,0.0,1.0,81,0.00,CLR,,0.02,WeatherDisplay:10.37,2013-02-28 22:35:00,
2013-02-28 16:36:00,34.9,27.5,30.00,WSW,246,0.0,0.0,74,0.03,RA,,0.14,WeatherDisplay:10.37,2013-02-28 22:36:00,
2013-02-28 16:40:00,31.1,26.0,30.20,SSW,204,0.0,2.0,81,0.00,CLR,,0.02,WeatherDisplay:10.37,2013-02-28 22:40:00,
2013-02-28 16:41:00,34.9,27.5,30.00,WSW,246,0.0,0.0,74,0.03,RA,,0.14,WeatherDisplay:10.37,2013-02-28 22:41:00,
2013-02-28 16:45:00,31.3,26.1,30.20,South,171,1.0,3.0,81,0.00,CLR,,0.02,WeatherDisplay:10.37,2013-02-28 22:45:00,
2013-02-28 16:46:00,34.9,27.5,30.00,WSW,246,0.0,0.0,74,0.03,RA,,0.14,WeatherDisplay:10.37,2013-02-28 22:46:00,
2013-02-28 16:50:00,31.2,26.0,30.20,WSW,244,0.0,2.0,81,0.00,CLR,,0.02,WeatherDisplay:10.37,2013-02-28 22:50:00,
2013-02-28 16:51:00,34.9,27.5,30.00,WSW,246,0.0,0.0,74,0.03,RA,,0.14,WeatherDisplay:10.37,2013-02-28 22:51:00,
2013-02-28 16:55:00,31.1,26.0,30.20,West,277,1.0,3.0,81,0.00,CLR,,0.02,WeatherDisplay:10.37,2013-02-28 22:55:00,
2013-02-28 16:56:00,34.9,27.5,30.00,WSW,246,0.0,0.0,74,0.03,RA,,0.14,WeatherDisplay:10.37,2013-02-28 22:56:00,
2013-02-28 17:00:00,31.0,25.9,30.20,WNW,282,1.0,5.0,81,0.00,CLR,,0.02,WeatherDisplay:10.37,2013-02-28 23:00:00,
2013-02-28 17:01:00,34.9,27.5,30.00,WSW,246,0.0,0.0,74,0.03,RA,,0.14,WeatherDisplay:10.37,2013-02-28 23:01:00,
2013-02-28 17:05:00,31.0,26.1,30.20,WNW,286,0.0,1.0,82,0.00,CLR,,0.02,WeatherDisplay:10.37,2013-02-28 23:05:00,
2013-02-28 17:06:00,34.9,27.5,30.00,WSW,246,0.0,0.0,74,0.03,RA,,0.14,WeatherDisplay:10.37,2013-02-28 23:06:00,
2013-02-28 17:10:00,31.0,26.1,30.20,WNW,292,0.0,2.0,82,0.00,CLR,,0.02,WeatherDisplay:10.37,2013-02-28 23:10:00,
2013-02-28 17:11:00,34.9,27.5,30.00,WSW,246,0.0,0.0,74,0.03,RA,,0.14,WeatherDisplay:10.37,2013-02-28 23:11:00,
2013-02-28 17:15:00,31.0,25.9,30.20,WNW,292,0.0,1.0,81,0.00,CLR,,0.02,WeatherDisplay:10.37,2013-02-28 23:15:00,
2013-02-28 17:16:00,34.9,27.5,30.00,WSW,246,0.0,0.0,74,0.03,RA,,0.14,WeatherDisplay:10.37,2013-02-28 23:16:00,
2013-02-28 17:20:00,30.9,26.1,30.20,WNW,288,3.0,4.0,82,0.00,CLR,,0.02,WeatherDisplay:10.37,2013-02-28 23:20:00,
2013-02-28 17:21:00,34.9,27.5,30.00,WSW,246,0.0,0.0,74,0.03,RA,,0.14,WeatherDisplay:10.37,2013-02-28 23:21:00,
2013-02-28 17:25:00,30.8,26.0,30.20,WSW,258,0.0,3.0,82,0.00,CLR,,0.02,WeatherDisplay:10.37,2013-02-28 23:25:00,
2013-02-28 17:26:00,34.9,27.5,30.00,WSW,246,0.0,0.0,74,0.03,RA,,0.14,WeatherDisplay:10.37,2013-02-28 23:26:00,
2013-02-28 17:30:00,30.8,26.0,30.20,SW,225,0.0,1.0,82,0.00,CLR,,0.02,WeatherDisplay:10.37,2013-02-28 23:30:00,
2013-02-28 17:32:00,34.9,27.5,30.00,WSW,246,0.0,0.0,74,0.03,RA,,0.14,WeatherDisplay:10.37,2013-02-28 23:32:00,
2013-02-28 17:35:00,30.9,26.1,30.20,SW,233,0.0,4.0,82,0.00,CLR,,0.02,WeatherDisplay:10.37,2013-02-28 23:35:00,
2013-02-28 17:37:00,34.9,27.5,30.00,WSW,246,0.0,0.0,74,0.03,RA,,0.14,WeatherDisplay:10.37,2013-02-28 23:37:00,
2013-02-28 17:40:00,30.8,26.0,30.21,WSW,257,0.0,3.0,82,0.00,CLR,,0.02,WeatherDisplay:10.37,2013-02-28 23:40:00,
2013-02-28 17:42:00,34.9,27.5,30.00,WSW,246,0.0,0.0,74,0.03,RA,,0.14,WeatherDisplay:10.37,2013-02-28 23:42:00,
2013-02-28 17:45:00,30.7,25.9,30.21,West,270,0.0,3.0,82,0.00,CLR,,0.02,WeatherDisplay:10.37,2013-02-28 23:45:00,
2013-02-28 17:47:00,34.9,27.5,30.00,WSW,246,0.0,0.0,74,0.03,RA,,0.14,WeatherDisplay:10.37,2013-02-28 23:47:00,
2013-02-28 17:50:00,30.7,25.9,30.21,West,270,0.0,1.0,82,0.00,CLR,,0.02,WeatherDisplay:10.37,2013-02-28 23:50:00,
2013-02-28 17:52:00,34.9,27.5,30.00,WSW,246,0.0,0.0,74,0.03,RA,,0.14,WeatherDisplay:10.37,2013-02-28 23:52:00,
2013-02-28 17:55:00,30.6,25.8,30.21,West,270,0.0,2.0,82,0.00,CLR,,0.02,WeatherDisplay:10.37,2013-02-28 23:55:00,
2013-02-28 17:57:00,34.9,27.5,30.00,WSW,246,0.0,0.0,74,0.03,RA,,0.14,WeatherDisplay:10.37,2013-02-28 23:57:00,
2013-02-28 18:00:00,30.7,25.9,30.21,West,272,1.0,4.0,82,0.00,CLR,,0.02,WeatherDisplay:10.37,2013-03-01 00:00:00,
2013-02-28 18:02:00,34.9,27.5,30.00,WSW,246,0.0,0.0,74,0.03,RA,,0.14,WeatherDisplay:10.37,2013-03-01 00:02:00,
2013-02-28 18:05:00,30.6,25.8,30.21,West,272,0.0,2.0,82,0.00,CLR,,0.02,WeatherDisplay:10.37,2013-03-01 00:05:00,
2013-02-28 18:07:00,34.9,27.5,30.00,WSW,246,0.0,0.0,74,0.03,RA,,0.14,WeatherDisplay:10.37,2013-03-01 00:07:00,
2013-02-28 18:10:00,30.6,25.8,30.21,West,270,0.0,1.0,82,0.00,CLR,,0.02,WeatherDisplay:10.37,2013-03-01 00:10:00,
2013-02-28 18:12:00,34.9,27.5,30.00,WSW,246,0.0,0.0,74,0.03,RA,,0.14,WeatherDisplay:10.37,2013-03-01 00:12:00,
2013-02-28 18:15:00,30.6,25.8,30.21,West,270,0.0,2.0,82,0.00,CLR,,0.02,WeatherDisplay:10.37,2013-03-01 00:15:00,
2013-02-28 18:17:00,34.9,27.5,30.00,WSW,246,0.0,0.0,74,0.03,RA,,0.14,WeatherDisplay:10.37,2013-03-01 00:17:00,
2013-02-28 18:20:00,30.5,25.7,30.21,West,281,0.0,2.0,82,0.00,CLR,,0.02,WeatherDisplay:10.37,2013-03-01 00:20:00,
2013-02-28 18:23:00,34.9,27.5,30.00,WSW,246,0.0,0.0,74,0.03,RA,,0.14,WeatherDisplay:10.37,2013-03-01 00:23:00,
2013-02-28 18:25:00,30.6,25.8,30.21,WNW,292,0.0,2.0,82,0.00,CLR,,0.02,WeatherDisplay:10.37,2013-03-01 00:25:00,
2013-02-28 18:28:00,34.9,27.5,30.00,WSW,246,0.0,0.0,74,0.03,RA,,0.14,WeatherDisplay:10.37,2013-03-01 00:28:00,
2013-02-28 18:30:00,30.5,25.7,30.21,WNW,288,0.0,3.0,82,0.00,CLR,,0.02,WeatherDisplay:10.37,2013-03-01 00:30:00,
2013-02-28 18:33:00,34.9,27.5,30.00,WSW,246,0.0,0.0,74,0.03,RA,,0.14,WeatherDisplay:10.37,2013-03-01 00:33:00,
2013-02-28 18:35:00,30.5,25.7,30.21,West,276,1.0,3.0,82,0.00,CLR,,0.02,WeatherDisplay:10.37,2013-03-01 00:35:00,
2013-02-28 18:38:00,34.9,27.5,30.00,WSW,246,0.0,0.0,74,0.03,RA,,0.14,WeatherDisplay:10.37,2013-03-01 00:38:00,
2013-02-28 18:40:00,30.5,26.0,30.21,West,270,0.0,3.0,83,0.00,CLR,,0.02,WeatherDisplay:10.37,2013-03-01 00:40:00,
2013-02-28 18:43:00,34.9,27.5,30.00,WSW,246,0.0,0.0,74,0.03,RA,,0.14,WeatherDisplay:10.37,2013-03-01 00:43:00,
2013-02-28 18:45:00,30.5,25.7,30.21,West,272,1.0,3.0,82,0.00,CLR,,0.02,WeatherDisplay:10.37,2013-03-01 00:45:00,
2013-02-28 18:48:00,34.9,27.5,30.00,WSW,246,0.0,0.0,74,0.03,RA,,0.14,WeatherDisplay:10.37,2013-03-01 00:48:00,
2013-02-28 18:50:00,30.5,26.0,30.21,West,278,0.0,3.0,83,0.00,CLR,,0.02,WeatherDisplay:10.37,2013-03-01 00:50:00,
2013-02-28 18:53:00,34.9,27.5,30.00,WSW,246,0.0,0.0,74,0.03,RA,,0.14,WeatherDisplay:10.37,2013-03-01 00:53:00,
2013-02-28 18:55:00,30.5,26.0,30.21,West,276,0.0,2.0,83,0.00,CLR,,0.02,WeatherDisplay:10.37,2013-03-01 00:55:00,
2013-02-28 18:58:00,34.9,27.5,30.00,WSW,246,0.0,0.0,74,0.03,RA,,0.14,WeatherDisplay:10.37,2013-03-01 00:58:00,
2013-02-28 19:00:00,30.5,26.0,30.21,West,270,1.0,4.0,83,0.00,CLR,,0.02,WeatherDisplay:10.37,2013-03-01 01:00:00,
2013-02-28 19:03:00,34.9,27.5,30.00,WSW,246,0.0,0.0,74,0.03,RA,,0.14,WeatherDisplay:10.37,2013-03-01 01:03:00,
2013-02-28 19:08:00,34.9,27.5,30.00,WSW,246,0.0,0.0,74,0.03,RA,,0.14,WeatherDisplay:10.37,2013-03-01 01:08:00,
2013-02-28 19:13:00,34.9,27.5,30.00,WSW,246,0.0,0.0,74,0.03,RA,,0.14,WeatherDisplay:10.37,2013-03-01 01:13:00,
2013-02-28 19:18:00,34.9,27.5,30.00,WSW,246,0.0,0.0,74,0.03,RA,,0.14,WeatherDisplay:10.37,2013-03-01 01:18:00,
2013-02-28 19:23:00,34.9,27.5,30.00,WSW,246,0.0,0.0,74,0.03,RA,,0.14,WeatherDisplay:10.37,2013-03-01 01:23:00,
2013-02-28 19:28:00,34.9,27.5,30.00,WSW,246,0.0,0.0,74,0.03,RA,,0.14,WeatherDisplay:10.37,2013-03-01 01:28:00,
2013-02-28 19:33:00,34.9,27.5,30.00,WSW,246,0.0,0.0,74,0.03,RA,,0.14,WeatherDisplay:10.37,2013-03-01 01:33:00,
2013-02-28 19:38:00,34.9,27.5,30.00,WSW,246,0.0,0.0,74,0.03,RA,,0.14,WeatherDisplay:10.37,2013-03-01 01:38:00,
2013-02-28 19:43:00,34.9,27.5,30.00,WSW,246,0.0,0.0,74,0.03,RA,,0.14,WeatherDisplay:10.37,2013-03-01 01:43:00,
2013-02-28 19:48:00,34.9,27.5,30.00,WSW,246,0.0,0.0,74,0.03,RA,,0.14,WeatherDisplay:10.37,2013-03-01 01:48:00,
2013-02-28 19:53:00,34.9,27.5,30.00,WSW,246,0.0,0.0,74,0.03,RA,,0.14,WeatherDisplay:10.37,2013-03-01 01:53:00,
2013-02-28 19:58:00,34.9,27.5,30.00,WSW,246,0.0,0.0,74,0.03,RA,,0.14,WeatherDisplay:10.37,2013-03-01 01:58:00,
2013-02-28 20:03:00,34.9,27.5,30.00,WSW,246,0.0,0.0,74,0.03,RA,,0.14,WeatherDisplay:10.37,2013-03-01 02:03:00,
2013-02-28 20:08:00,34.9,27.5,30.00,WSW,246,0.0,0.0,74,0.03,RA,,0.14,WeatherDisplay:10.37,2013-03-01 02:08:00,
2013-02-28 20:13:00,34.9,27.5,30.00,WSW,246,0.0,0.0,74,0.03,RA,,0.14,WeatherDisplay:10.37,2013-03-01 02:13:00,
2013-02-28 20:18:00,34.9,27.5,30.00,WSW,246,0.0,0.0,74,0.03,RA,,0.14,WeatherDisplay:10.37,2013-03-01 02:18:00,
2013-02-28 20:23:00,34.9,27.5,30.00,WSW,246,0.0,0.0,74,0.03,RA,,0.14,WeatherDisplay:10.37,2013-03-01 02:23:00,
2013-02-28 20:29:00,34.9,27.5,30.00,WSW,246,0.0,0.0,74,0.03,RA,,0.14,WeatherDisplay:10.37,2013-03-01 02:29:00,
2013-02-28 20:34:00,34.9,27.5,30.00,WSW,246,0.0,0.0,74,0.03,RA,,0.14,WeatherDisplay:10.37,2013-03-01 02:34:00,
2013-02-28 20:39:00,34.9,27.5,30.00,WSW,246,0.0,0.0,74,0.03,RA,,0.14,WeatherDisplay:10.37,2013-03-01 02:39:00,
2013-02-28 20:45:00,34.9,27.5,30.00,WSW,246,0.0,0.0,74,0.03,RA,,0.14,WeatherDisplay:10.37,2013-03-01 02:45:00,
2013-02-28 20:50:00,34.9,27.5,30.00,WSW,246,0.0,0.0,74,0.03,RA,,0.14,WeatherDisplay:10.37,2013-03-01 02:50:00,
2013-02-28 20:55:00,34.9,27.5,30.00,WSW,246,0.0,0.0,74,0.03,RA,,0.14,WeatherDisplay:10.37,2013-03-01 02:55:00,
2013-02-28 21:00:00,34.9,27.5,30.00,WSW,246,0.0,0.0,74,0.03,RA,,0.14,WeatherDisplay:10.37,2013-03-01 03:00:00,
2013-02-28 21:05:00,34.9,27.5,30.00,WSW,246,0.0,0.0,74,0.03,RA,,0.14,WeatherDisplay:10.37,2013-03-01 03:05:00,
2013-02-28 21:10:00,34.9,27.5,30.00,WSW,246,0.0,0.0,74,0.03,RA,,0.14,WeatherDisplay:10.37,2013-03-01 03:10:00,
2013-02-28 21:15:00,34.9,27.5,30.00,WSW,246,0.0,0.0,74,0.03,RA,,0.14,WeatherDisplay:10.37,2013-03-01 03:15:00,
2013-02-28 21:20:00,34.9,27.5,30.00,WSW,246,0.0,0.0,74,0.03,RA,,0.14,WeatherDisplay:10.37,2013-03-01 03:20:00,
2013-02-28 21:25:00,34.9,27.5,30.00,WSW,246,0.0,0.0,74,0.03,RA,,0.14,WeatherDisplay:10.37,2013-03-01 03:25:00,
2013-02-28 21:30:00,34.9,27.5,30.00,WSW,246,0.0,0.0,74,0.03,RA,,0.14,WeatherDisplay:10.37,2013-03-01 03:30:00,
2013-02-28 21:35:00,34.9,27.5,30.00,WSW,246,0.0,0.0,74,0.03,RA,,0.14,WeatherDisplay:10.37,2013-03-01 03:35:00,
2013-02-28 21:40:00,34.9,27.5,30.00,WSW,246,0.0,0.0,74,0.03,RA,,0.14,WeatherDisplay:10.37,2013-03-01 03:40:00,
2013-02-28 21:45:00,34.9,27.5,30.00,WSW,246,0.0,0.0,74,0.03,RA,,0.14,WeatherDisplay:10.37,2013-03-01 03:45:00,
2013-02-28 21:50:00,34.9,27.5,30.00,WSW,246,0.0,0.0,74,0.03,RA,,0.14,WeatherDisplay:10.37,2013-03-01 03:50:00,
2013-02-28 21:55:00,34.9,27.5,30.00,WSW,246,0.0,0.0,74,0.03,RA,,0.14,WeatherDisplay:10.37,2013-03-01 03:55:00,
2013-02-28 22:00:00,34.9,27.5,30.00,WSW,246,0.0,0.0,74,0.03,RA,,0.14,WeatherDisplay:10.37,2013-03-01 04:00:00,
2013-02-28 22:06:00,34.9,27.5,30.00,WSW,246,0.0,0.0,74,0.03,RA,,0.14,WeatherDisplay:10.37,2013-03-01 04:06:00,
2013-02-28 22:11:00,34.9,27.5,30.00,WSW,246,0.0,0.0,74,0.03,RA,,0.14,WeatherDisplay:10.37,2013-03-01 04:11:00,
2013-02-28 22:16:00,34.9,27.5,30.00,WSW,246,0.0,0.0,74,0.03,RA,,0.14,WeatherDisplay:10.37,2013-03-01 04:16:00,
2013-02-28 22:21:00,34.9,27.5,30.00,WSW,246,0.0,0.0,74,0.03,RA,,0.14,WeatherDisplay:10.37,2013-03-01 04:21:00,
2013-02-28 22:26:00,34.9,27.5,30.00,WSW,246,0.0,0.0,74,0.03,RA,,0.14,WeatherDisplay:10.37,2013-03-01 04:26:00,
2013-02-28 22:31:00,34.9,27.5,30.00,WSW,246,0.0,0.0,74,0.03,RA,,0.14,WeatherDisplay:10.37,2013-03-01 04:31:00,
2013-02-28 22:36:00,34.9,27.5,30.00,WSW,246,0.0,0.0,74,0.03,RA,,0.14,WeatherDisplay:10.37,2013-03-01 04:36:00,
2013-02-28 22:41:00,34.9,27.5,30.00,WSW,246,0.0,0.0,74,0.03,RA,,0.14,WeatherDisplay:10.37,2013-03-01 04:41:00,
2013-02-28 22:46:00,34.9,27.5,30.00,WSW,246,0.0,0.0,74,0.03,RA,,0.14,WeatherDisplay:10.37,2013-03-01 04:46:00,
2013-02-28 22:51:00,34.9,27.5,30.00,WSW,246,0.0,0.0,74,0.03,RA,,0.14,WeatherDisplay:10.37,2013-03-01 04:51:00,
2013-02-28 22:56:00,34.9,27.5,30.00,WSW,246,0.0,0.0,74,0.03,RA,,0.14,WeatherDisplay:10.37,2013-03-01 04:56:00,
2013-02-28 23:02:00,34.9,27.5,30.00,WSW,246,0.0,0.0,74,0.03,RA,,0.14,WeatherDisplay:10.37,2013-03-01 05:02:00,
2013-02-28 23:07:00,34.9,27.5,30.00,WSW,246,0.0,0.0,74,0.03,RA,,0.14,WeatherDisplay:10.37,2013-03-01 05:07:00,
2013-02-28 23:12:00,34.9,27.5,30.00,WSW,246,0.0,0.0,74,0.03,RA,,0.14,WeatherDisplay:10.37,2013-03-01 05:12:00,
2013-02-28 23:18:00,34.9,27.5,30.00,WSW,246,0.0,0.0,74,0.03,RA,,0.14,WeatherDisplay:10.37,2013-03-01 05:18:00,
2013-02-28 23:23:00,34.9,27.5,30.00,WSW,246,0.0,0.0,74,0.03,RA,,0.14,WeatherDisplay:10.37,2013-03-01 05:23:00,
2013-02-28 23:28:00,34.9,27.5,30.00,WSW,246,0.0,0.0,74,0.03,RA,,0.14,WeatherDisplay:10.37,2013-03-01 05:28:00,
2013-02-28 23:33:00,34.9,27.5,30.00,WSW,246,0.0,0.0,74,0.03,RA,,0.14,WeatherDisplay:10.37,2013-03-01 05:33:00,
2013-02-28 23:38:00,34.9,27.5,30.00,WSW,246,0.0,0.0,74,0.03,RA,,0.14,WeatherDisplay:10.37,2013-03-01 05:38:00,
2013-02-28 23:43:00,34.9,27.5,30.00,WSW,246,0.0,0.0,74,0.03,RA,,0.14,WeatherDisplay:10.37,2013-03-01 05:43:00,
2013-02-28 23:48:00,34.9,27.5,30.00,WSW,246,0.0,0.0,74,0.03,RA,,0.14,WeatherDisplay:10.37,2013-03-01 05:48:00,
2013-02-28 23:53:00,34.9,27.5,30.00,WSW,246,0.0,0.0,74,0.03,RA,,0.14,WeatherDisplay:10.37,2013-03-01 05:53:00,
2013-02-28 23:58:00,34.9,27.5,30.00,WSW,246,0.0,0.0,74,0.03,RA,,0.14,WeatherDisplay:10.37,2013-03-01 05:58:00,